Map

Track Data

SID SEASON NUMBER BASIN SUBBASIN NAME ISO_TIME NATURE LAT LON WMO_WIND WMO_PRES WMO_AGENCY TRACK_TYPE DIST2LAND LANDFALL IFLAG USA_AGENCY USA_ATCF_ID USA_LAT USA_LON USA_RECORD USA_STATUS USA_WIND USA_PRES USA_SSHS USA_R34_NE USA_R34_SE USA_R34_SW USA_R34_NW USA_R50_NE USA_R50_SE USA_R50_SW USA_R50_NW USA_R64_NE USA_R64_SE USA_R64_SW USA_R64_NW USA_POCI USA_ROCI USA_RMW USA_EYE TOKYO_LAT TOKYO_LON TOKYO_GRADE TOKYO_WIND TOKYO_PRES TOKYO_R50_DIR TOKYO_R50_LONG TOKYO_R50_SHORT TOKYO_R30_DIR TOKYO_R30_LONG TOKYO_R30_SHORT TOKYO_LAND CMA_LAT CMA_LON CMA_CAT CMA_WIND CMA_PRES HKO_LAT HKO_LON HKO_CAT HKO_WIND HKO_PRES NEWDELHI_LAT NEWDELHI_LON NEWDELHI_GRADE NEWDELHI_WIND NEWDELHI_PRES NEWDELHI_CI NEWDELHI_DP NEWDELHI_POCI REUNION_LAT REUNION_LON REUNION_TYPE REUNION_WIND REUNION_PRES REUNION_TNUM REUNION_CI REUNION_RMW REUNION_R34_NE REUNION_R34_SE REUNION_R34_SW REUNION_R34_NW REUNION_R50_NE REUNION_R50_SE REUNION_R50_SW REUNION_R50_NW REUNION_R64_NE REUNION_R64_SE REUNION_R64_SW REUNION_R64_NW BOM_LAT BOM_LON BOM_TYPE BOM_WIND BOM_PRES BOM_TNUM BOM_CI BOM_RMW BOM_R34_NE BOM_R34_SE BOM_R34_SW BOM_R34_NW BOM_R50_NE BOM_R50_SE BOM_R50_SW BOM_R50_NW BOM_R64_NE BOM_R64_SE BOM_R64_SW BOM_R64_NW BOM_ROCI BOM_POCI BOM_EYE BOM_POS_METHOD BOM_PRES_METHOD NADI_LAT NADI_LON NADI_CAT NADI_WIND NADI_PRES WELLINGTON_LAT WELLINGTON_LON WELLINGTON_WIND WELLINGTON_PRES DS824_LAT DS824_LON DS824_STAGE DS824_WIND DS824_PRES TD9636_LAT TD9636_LON TD9636_STAGE TD9636_WIND TD9636_PRES TD9635_LAT TD9635_LON TD9635_WIND TD9635_PRES TD9635_ROCI NEUMANN_LAT NEUMANN_LON NEUMANN_CLASS NEUMANN_WIND NEUMANN_PRES MLC_LAT MLC_LON MLC_CLASS MLC_WIND MLC_PRES USA_GUST BOM_GUST BOM_GUST_PER REUNION_GUST REUNION_GUST_PER USA_SEAHGT USA_SEARAD_NE USA_SEARAD_SE USA_SEARAD_SW USA_SEARAD_NW STORM_SPEED STORM_DIR
1887255N13303 1887 45 NA NA NOT_NAMED 1887-09-11 12:00:00 TS 13.3000 -57.0000 35 hurdat_atl main 523 477 O_____________ hurdat_atl AL091887 13.3000 -57.0000 TS 35 0 12 276
1887255N13303 1887 45 NA NA NOT_NAMED 1887-09-11 15:00:00 TS 13.3628 -57.6099 main 477 429 P_____________ AL091887 13.3628 -57.6099 TS 37 0 12 275
1887255N13303 1887 45 NA NA NOT_NAMED 1887-09-11 18:00:00 TS 13.4000 -58.2000 40 hurdat_atl main 429 392 O_____________ hurdat_atl AL091887 13.4000 -58.2000 TS 40 0 11 272
1887255N13303 1887 45 NA NA NOT_NAMED 1887-09-11 21:00:00 TS 13.3998 -58.7576 main 385 354 P_____________ AL091887 13.3998 -58.7576 TS 42 0 11 270
1887255N13303 1887 45 NA CS NOT_NAMED 1887-09-12 00:00:00 TS 13.4000 -59.3000 45 hurdat_atl main 354 329 O_____________ hurdat_atl AL091887 13.4000 -59.3000 TS 45 0 11 272
1887255N13303 1887 45 NA CS NOT_NAMED 1887-09-12 03:00:00 TS 13.4424 -59.8575 main 325 320 P_____________ AL091887 13.4424 -59.8575 TS 47 0 11 275
1887255N13303 1887 45 NA CS NOT_NAMED 1887-09-12 06:00:00 TS 13.5000 -60.4000 50 hurdat_atl main 320 313 O_____________ hurdat_atl AL091887 13.5000 -60.4000 TS 50 0 10 276
1887255N13303 1887 45 NA CS NOT_NAMED 1887-09-12 09:00:00 TS 13.5499 -60.9150 main 313 313 P_____________ AL091887 13.5499 -60.9150 TS 52 0 10 276
1887255N13303 1887 45 NA CS NOT_NAMED 1887-09-12 12:00:00 TS 13.6000 -61.4000 55 hurdat_atl main 324 324 O_____________ hurdat_atl AL091887 13.6000 -61.4000 TS 55 0 9 276
1887255N13303 1887 45 NA CS NOT_NAMED 1887-09-12 15:00:00 TS 13.6499 -61.8650 main 325 325 P_____________ AL091887 13.6499 -61.8650 TS 57 0 9 277
1887255N13303 1887 45 NA CS NOT_NAMED 1887-09-12 18:00:00 TS 13.7000 -62.3000 60 hurdat_atl main 335 335 O_____________ hurdat_atl AL091887 13.7000 -62.3000 TS 60 0 8 277
1887255N13303 1887 45 NA CS NOT_NAMED 1887-09-12 21:00:00 TS 13.7499 -62.7075 main 335 335 P_____________ AL091887 13.7499 -62.7075 TS 62 0 8 277
1887255N13303 1887 45 NA CS NOT_NAMED 1887-09-13 00:00:00 TS 13.8000 -63.1000 65 hurdat_atl main 347 347 O_____________ hurdat_atl AL091887 13.8000 -63.1000 HU 65 1 8 277
1887255N13303 1887 45 NA CS NOT_NAMED 1887-09-13 03:00:00 TS 13.8499 -63.4925 main 349 349 P_____________ AL091887 13.8499 -63.4925 HU 67 1 8 277
1887255N13303 1887 45 NA CS NOT_NAMED 1887-09-13 06:00:00 TS 13.9000 -63.9000 70 hurdat_atl main 368 368 O_____________ hurdat_atl AL091887 13.9000 -63.9000 HU 70 1 8 277
1887255N13303 1887 45 NA CS NOT_NAMED 1887-09-13 09:00:00 TS 13.9497 -64.3051 main 369 369 P_____________ AL091887 13.9497 -64.3051 HU 72 1 9 277
1887255N13303 1887 45 NA CS NOT_NAMED 1887-09-13 12:00:00 TS 14.0000 -64.8000 75 hurdat_atl main 386 386 O_____________ hurdat_atl AL091887 14.0000 -64.8000 HU 75 1 11 275
1887255N13303 1887 45 NA CS NOT_NAMED 1887-09-13 15:00:00 TS 14.0499 -65.4475 main 386 386 P_____________ AL091887 14.0499 -65.4475 HU 77 1 14 274
1887255N13303 1887 45 NA CS NOT_NAMED 1887-09-13 18:00:00 TS 14.1000 -66.2000 80 hurdat_atl main 391 363 O_____________ hurdat_atl AL091887 14.1000 -66.2000 HU 80 1 15 274
1887255N13303 1887 45 NA CS NOT_NAMED 1887-09-13 21:00:00 TS 14.1423 -66.9776 main 358 327 P_____________ AL091887 14.1423 -66.9776 HU 82 1 16 274
1887255N13303 1887 45 NA CS NOT_NAMED 1887-09-14 00:00:00 TS 14.2000 -67.8000 85 hurdat_atl main 327 283 O_____________ hurdat_atl AL091887 14.2000 -67.8000 HU 85 2 16 276
1887255N13303 1887 45 NA CS NOT_NAMED 1887-09-14 03:00:00 TS 14.2999 -68.6574 main 278 261 P_____________ AL091887 14.2999 -68.6574 HU 85 2 17 277
1887255N13303 1887 45 NA CS NOT_NAMED 1887-09-14 06:00:00 TS 14.4000 -69.5000 85 hurdat_atl main 261 257 O_____________ hurdat_atl AL091887 14.4000 -69.5000 HU 85 2 16 275
1887255N13303 1887 45 NA CS NOT_NAMED 1887-09-14 09:00:00 TS 14.4497 -70.2802 main 257 241 P_____________ AL091887 14.4497 -70.2802 HU 85 2 15 274
1887255N13303 1887 45 NA CS NOT_NAMED 1887-09-14 12:00:00 TS 14.5000 -71.0000 85 hurdat_atl main 241 235 O_____________ hurdat_atl AL091887 14.5000 -71.0000 HU 85 2 14 276
1887255N13303 1887 45 NA CS NOT_NAMED 1887-09-14 15:00:00 TS 14.5848 -71.6725 main 246 246 P_____________ AL091887 14.5848 -71.6725 HU 85 2 13 279
1887255N13303 1887 45 NA CS NOT_NAMED 1887-09-14 18:00:00 TS 14.7000 -72.3000 85 hurdat_atl main 265 265 O_____________ hurdat_atl AL091887 14.7000 -72.3000 HU 85 2 12 282
1887255N13303 1887 45 NA CS NOT_NAMED 1887-09-14 21:00:00 TS 14.8423 -72.9075 main 296 296 P_____________ AL091887 14.8423 -72.9075 HU 85 2 12 285
1887255N13303 1887 45 NA CS NOT_NAMED 1887-09-15 00:00:00 TS 15.0000 -73.5000 85 hurdat_atl main 337 324 O_____________ hurdat_atl AL091887 15.0000 -73.5000 HU 85 2 12 285
1887255N13303 1887 45 NA CS NOT_NAMED 1887-09-15 03:00:00 TS 15.1423 -74.0927 main 325 308 P_____________ AL091887 15.1423 -74.0927 HU 85 2 12 285
1887255N13303 1887 45 NA CS NOT_NAMED 1887-09-15 06:00:00 TS 15.3000 -74.7000 85 hurdat_atl main 313 285 O_____________ hurdat_atl AL091887 15.3000 -74.7000 HU 85 2 12 286
1887255N13303 1887 45 NA CS NOT_NAMED 1887-09-15 09:00:00 TS 15.4845 -75.3053 main 285 247 P_____________ AL091887 15.4845 -75.3053 HU 85 2 13 288
1887255N13303 1887 45 NA CS NOT_NAMED 1887-09-15 12:00:00 TS 15.7000 -76.0000 85 hurdat_atl main 247 205 O_____________ hurdat_atl AL091887 15.7000 -76.0000 HU 85 2 16 287
1887255N13303 1887 45 NA CS NOT_NAMED 1887-09-15 15:00:00 TS 15.9425 -76.8625 main 203 173 P_____________ AL091887 15.9425 -76.8625 HU 85 2 18 286
1887255N13303 1887 45 NA CS NOT_NAMED 1887-09-15 18:00:00 TS 16.2000 -77.8000 85 hurdat_atl main 179 178 O_____________ hurdat_atl AL091887 16.2000 -77.8000 HU 85 2 18 286
1887255N13303 1887 45 NA CS NOT_NAMED 1887-09-15 21:00:00 TS 16.4420 -78.6929 main 198 189 P_____________ AL091887 16.4420 -78.6929 HU 85 2 18 286
1887255N13303 1887 45 NA CS NOT_NAMED 1887-09-16 00:00:00 TS 16.7000 -79.6000 85 hurdat_atl main 210 210 O_____________ hurdat_atl AL091887 16.7000 -79.6000 HU 85 2 19 287
1887255N13303 1887 45 NA CS NOT_NAMED 1887-09-16 03:00:00 TS 16.9851 -80.5726 main 269 269 P_____________ AL091887 16.9851 -80.5726 HU 85 2 21 289
1887255N13303 1887 45 NA CS NOT_NAMED 1887-09-16 06:00:00 TS 17.3889 -81.6667 85 hurdat_atl main 296 287 O____________O hurdat_atl AL091887 17.3000 -81.5000 HU 85 2 18.1000 -83.0000 TS 60 20 294
1887255N13303 1887 45 NA CS NOT_NAMED 1887-09-16 09:00:00 TS 17.7952 -82.4981 main 293 287 P____________P AL091887 17.6421 -82.3101 HU 85 2 18.4101 -83.2498 TS 60 16 300
1887255N13303 1887 45 NA CS NOT_NAMED 1887-09-16 12:00:00 TS 18.1909 -83.1364 85 hurdat_atl main 297 292 O____________O hurdat_atl AL091887 18.0000 -83.0000 HU 85 2 18.7000 -83.5000 TS 60 13 305
1887255N13303 1887 45 NA CS NOT_NAMED 1887-09-16 15:00:00 TS 18.5472 -83.6420 main 311 311 P____________P AL091887 18.3421 -83.5879 HU 85 2 18.9575 -83.7501 TS 65 11 307
1887255N13303 1887 45 NA CS NOT_NAMED 1887-09-16 18:00:00 TS 18.8667 -84.0667 85 hurdat_atl main 310 290 O____________O hurdat_atl AL091887 18.7000 -84.1000 HU 85 2 19.2000 -84.0000 HU 70 11 309
1887255N13303 1887 45 NA CS NOT_NAMED 1887-09-16 21:00:00 TS 19.2116 -84.4984 main 290 254 P____________P AL091887 19.0924 -84.6226 HU 85 2 19.4500 -84.2501 HU 77 11 312
1887255N13303 1887 45 NA CS NOT_NAMED 1887-09-17 00:00:00 TS 19.5667 -84.9000 85 hurdat_atl main 246 203 O____________O hurdat_atl AL091887 19.5000 -85.1000 HU 85 2 19.7000 -84.5000 HU 85 10 314
1887255N13303 1887 45 NA CS NOT_NAMED 1887-09-17 03:00:00 TS 19.9191 -85.2652 main 194 151 P____________P AL091887 19.9073 -85.5227 HU 85 2 19.9425 -84.7501 HU 85 10 317
1887255N13303 1887 45 NA CS NOT_NAMED 1887-09-17 06:00:00 TS 20.2667 -85.6000 85 hurdat_atl main 145 100 O____________O hurdat_atl AL091887 20.3000 -85.9000 HU 85 2 20.2000 -85.0000 HU 85 9 319
1887255N13303 1887 45 NA CS NOT_NAMED 1887-09-17 09:00:00 TS 20.6149 -85.9143 main 100 56 P____________P AL091887 20.6799 -86.2651 HU 85 2 20.4847 -85.2129 HU 87 9 318
1887255N13303 1887 45 NA CS NOT_NAMED 1887-09-17 12:00:00 TS 20.9333 -86.2333 85 hurdat_atl main 56 15 O____________O hurdat_atl AL091887 21.0000 -86.6000 HU 85 2 20.8000 -85.5000 HU 90 9 312
1887255N13303 1887 45 NA CS NOT_NAMED 1887-09-17 15:00:00 TS 21.1909 -86.6051 main 15 0 P____________P AL091887 21.2149 -86.9153 HU 80 1 21.1428 -85.9848 HU 90 8 306
1887255N13303 1887 45 NA NA NOT_NAMED 1887-09-17 18:00:00 TS 21.4333 -86.9667 75 hurdat_atl main 0 0 O____________O hurdat_atl AL091887 21.4000 -87.2000 HU 75 1 21.5000 -86.5000 HU 90 8 311
1887255N13303 1887 45 NA GM NOT_NAMED 1887-09-17 21:00:00 TS 21.7165 -87.2601 main 30 30 P____________P AL091887 21.6499 -87.4501 HU 77 1 21.8498 -86.8803 HU 90 8 317
1887255N13303 1887 45 NA GM NOT_NAMED 1887-09-18 00:00:00 TS 22.0000 -87.5333 80 hurdat_atl main 59 56 O____________O hurdat_atl AL091887 21.9000 -87.7000 HU 80 1 22.2000 -87.2000 HU 90 8 315
1887255N13303 1887 45 NA GM NOT_NAMED 1887-09-18 03:00:00 TS 22.2575 -87.8334 main 89 89 P____________P AL091887 22.1075 -88.0001 HU 82 1 22.5574 -87.5002 HU 90 7 312
1887255N13303 1887 45 NA GM NOT_NAMED 1887-09-18 06:00:00 TS 22.5000 -88.1333 85 hurdat_atl main 111 111 O____________O hurdat_atl AL091887 22.3000 -88.3000 HU 85 2 22.9000 -87.8000 HU 90 7 311
1887255N13303 1887 45 NA GM NOT_NAMED 1887-09-18 09:00:00 TS 22.7383 -88.4242 main 134 134 P____________P AL091887 22.4999 -88.5576 HU 85 2 23.2151 -88.1575 HU 90 7 312
1887255N13303 1887 45 NA GM NOT_NAMED 1887-09-18 12:00:00 TS 22.9667 -88.7000 85 hurdat_atl main 168 168 O____________O hurdat_atl AL091887 22.7000 -88.8000 HU 85 2 23.5000 -88.5000 HU 90 7 313
1887255N13303 1887 45 NA GM NOT_NAMED 1887-09-18 15:00:00 TS 23.1883 -88.9526 main 194 194 P____________P AL091887 22.9000 -89.0501 HU 85 2 23.7648 -88.7577 HU 90 6 313
1887255N13303 1887 45 NA GM NOT_NAMED 1887-09-18 18:00:00 TS 23.4000 -89.2000 85 hurdat_atl main 221 221 O____________O hurdat_atl AL091887 23.1000 -89.3000 HU 85 2 24.0000 -89.0000 HU 90 6 311
1887255N13303 1887 45 NA GM NOT_NAMED 1887-09-18 21:00:00 TS 23.6025 -89.4643 main 252 252 P____________P AL091887 23.3000 -89.5501 HU 85 2 24.2075 -89.2926 HU 90 6 309
1887255N13303 1887 45 NA GM NOT_NAMED 1887-09-19 00:00:00 TS 23.8000 -89.7333 85 hurdat_atl main 280 280 O____________O hurdat_atl AL091887 23.5000 -89.8000 HU 85 2 24.4000 -89.6000 HU 90 6 309
1887255N13303 1887 45 NA GM NOT_NAMED 1887-09-19 03:00:00 TS 23.9899 -89.9902 main 310 310 P____________P AL091887 23.6849 -90.0353 HU 85 2 24.5999 -89.9001 HU 90 6 309
1887255N13303 1887 45 NA GM NOT_NAMED 1887-09-19 06:00:00 TS 24.2000 -90.2667 85 hurdat_atl main 337 337 O____________O hurdat_atl AL091887 23.9000 -90.3000 HU 85 2 24.8000 -90.2000 HU 90 7 312
1887255N13303 1887 45 NA GM NOT_NAMED 1887-09-19 09:00:00 TS 24.4641 -90.5775 main 375 375 P____________P AL091887 24.1925 -90.6349 HU 85 2 25.0071 -90.4627 HU 90 8 311
1887255N13303 1887 45 NA GM NOT_NAMED 1887-09-19 12:00:00 TS 24.7333 -90.9333 85 hurdat_atl main 404 404 O____________O hurdat_atl AL091887 24.5000 -91.0000 HU 85 2 25.2000 -90.8000 HU 90 9 306
1887255N13303 1887 45 NA GM NOT_NAMED 1887-09-19 15:00:00 TS 24.9651 -91.3500 main 450 442 P____________P AL091887 24.7650 -91.3576 HU 85 2 25.3654 -91.3349 HU 90 9 300
1887255N13303 1887 45 NA GM NOT_NAMED 1887-09-19 18:00:00 TS 25.1667 -91.7667 85 hurdat_atl main 444 435 O____________O hurdat_atl AL091887 25.0000 -91.7000 HU 85 2 25.5000 -91.9000 HU 90 8 299
1887255N13303 1887 45 NA GM NOT_NAMED 1887-09-19 21:00:00 TS 25.3381 -92.1003 main 440 425 P____________P AL091887 25.2073 -91.9928 HU 85 2 25.5996 -92.3153 HU 90 7 299
1887255N13303 1887 45 NA GM NOT_NAMED 1887-09-20 00:00:00 TS 25.5000 -92.4333 85 hurdat_atl main 428 419 O____________O hurdat_atl AL091887 25.4000 -92.3000 HU 85 2 25.7000 -92.7000 HU 90 8 298
1887255N13303 1887 45 NA GM NOT_NAMED 1887-09-20 03:00:00 TS 25.6933 -92.8324 main 423 389 P____________P AL091887 25.6149 -92.6774 HU 85 2 25.8499 -93.1424 HU 90 8 296
1887255N13303 1887 45 NA GM NOT_NAMED 1887-09-20 06:00:00 TS 25.8667 -93.2667 85 hurdat_atl main 379 339 O____________O hurdat_atl AL091887 25.8000 -93.1000 HU 85 2 26.0000 -93.6000 HU 90 9 290
1887255N13303 1887 45 NA GM NOT_NAMED 1887-09-20 09:00:00 TS 25.9891 -93.7192 main 339 299 P____________P AL091887 25.9225 -93.5501 HU 85 2 26.1224 -94.0575 HU 90 8 284
1887255N13303 1887 45 NA GM NOT_NAMED 1887-09-20 12:00:00 TS 26.0667 -94.1667 85 hurdat_atl main 289 249 O____________O hurdat_atl AL091887 26.0000 -94.0000 HU 85 2 26.2000 -94.5000 HU 90 8 279
1887255N13303 1887 45 NA GM NOT_NAMED 1887-09-20 15:00:00 TS 26.1148 -94.5743 main 249 219 P____________P AL091887 26.0648 -94.4076 HU 85 2 26.2148 -94.9077 HU 90 7 275
1887255N13303 1887 45 NA GM NOT_NAMED 1887-09-20 18:00:00 TS 26.1333 -94.9667 85 hurdat_atl main 209 170 O____________O hurdat_atl AL091887 26.1000 -94.8000 HU 85 2 26.2000 -95.3000 HU 90 7 272
1887255N13303 1887 45 NA GM NOT_NAMED 1887-09-20 21:00:00 TS 26.1383 -95.3792 main 170 140 P____________P AL091887 26.1075 -95.2151 HU 85 2 26.2000 -95.7075 HU 90 7 270
1887255N13303 1887 45 NA GM NOT_NAMED 1887-09-21 00:00:00 TS 26.1333 -95.7667 85 hurdat_atl main 130 100 O____________O hurdat_atl AL091887 26.1000 -95.6000 HU 85 2 26.2000 -96.1000 HU 90 7 270
1887255N13303 1887 45 NA GM NOT_NAMED 1887-09-21 03:00:00 TS 26.1332 -96.1058 main 100 70 P____________P AL091887 26.0998 -95.9150 HU 82 1 26.2000 -96.4875 HU 87 6 270
1887255N13303 1887 45 NA GM NOT_NAMED 1887-09-21 06:00:00 TS 26.1333 -96.4000 80 hurdat_atl main 70 41 O____________O hurdat_atl AL091887 26.1000 -96.2000 HU 80 1 26.2000 -96.8000 HU 85 5 271
1887255N13303 1887 45 NA GM NOT_NAMED 1887-09-21 09:00:00 TS 26.1408 -96.6666 main 41 22 P____________P AL091887 26.1000 -96.5099 HU 77 1 26.2223 -96.9799 HU 85 4 270
1887255N13303 1887 45 NA GM NOT_NAMED 1887-09-21 12:00:00 TS 26.1333 -96.9000 75 hurdat_atl main 22 11 O____________O hurdat_atl AL091887 26.1000 -96.8000 HU 75 1 26.2000 -97.1000 HU 85 4 262
1887255N13303 1887 45 NA GM NOT_NAMED 1887-09-21 15:00:00 TS 26.0833 -97.1061 main 11 0 P____________P AL091887 26.0999 -97.0303 HU 75 1 26.0500 -97.2576 HU 82 4 255
1887255N13303 1887 45 NA GM NOT_NAMED 1887-09-21 17:00:00 TS 26.0469 -97.2519 75 973 hurdat_atl main 0 0 O____________P hurdat_atl AL091887 26.1000 -97.2000 L HU 75 973 1 25.9407 -97.3558 HU 80 4 256
1887255N13303 1887 45 NA NA NOT_NAMED 1887-09-21 18:00:00 TS 26.0333 -97.3333 75 973 hurdat_atl main 0 0 O____________O hurdat_atl AL091887 26.1000 -97.3000 HU 75 973 1 25.9000 -97.4000 HU 80 973 4 263
1887255N13303 1887 45 NA NA NOT_NAMED 1887-09-21 21:00:00 TS 26.0105 -97.5681 main 0 0 P____________P AL091887 26.0695 -97.6060 HU 67 1 25.8924 -97.4924 HU 70 4 261
1887255N13303 1887 45 NA NA NOT_NAMED 1887-09-22 00:00:00 TS 25.9667 -97.8000 60 hurdat_atl main 0 0 O____________O hurdat_atl AL091887 26.0000 -97.9000 TS 60 0 25.9000 -97.6000 TS 60 4 253
1887255N13303 1887 45 NA NA NOT_NAMED 1887-09-22 03:00:00 TS 25.8816 -98.0308 main 0 0 P____________P AL091887 25.9149 -98.1575 TS 52 0 25.8150 -97.7775 TS 52 5 245
1887255N13303 1887 45 NA NA NOT_NAMED 1887-09-22 06:00:00 TS 25.7667 -98.2667 45 hurdat_atl main 0 0 O____________O hurdat_atl AL091887 25.8000 -98.4000 TS 45 0 25.7000 -98.0000 TS 45 5 241
1887255N13303 1887 45 NA NA NOT_NAMED 1887-09-22 09:00:00 TS 25.6556 -98.4889 main 0 0 P____________P AL091887 25.6724 -98.6348 TS 40 0 25.6222 -98.1971 TS 40 5 239
1887255N13303 1887 45 NA NA NOT_NAMED 1887-09-22 12:00:00 TS 25.5000 -98.7667 35 hurdat_atl main 0 0 O____________O hurdat_atl AL091887 25.5000 -98.9000 TS 35 0 25.5000 -98.5000 TS 35 7 237
1887255N13303 1887 45 NA NA NOT_NAMED 1887-09-22 15:00:00 TS 25.2721 -99.1514 main 0 0 P____________P AL091887 25.2678 -99.2304 TS 32 -1 25.2808 -98.9934 TS 32 9 236
1887255N13303 1887 45 NA NA NOT_NAMED 1887-09-22 18:00:00 TS 25.0000 -99.6000 30 hurdat_atl main 0 O____________O hurdat_atl AL091887 25.0000 -99.6000 TD 30 -1 25.0000 -99.6000 TD 30 10 236

About IBTrACS Database

This database is a web-friendly format of International Best Track Archive for Climate Stewardship (IBTrACS), a global best track data archive curated by NOAA dating back to 1842.

Updated: 2021-12-06